createdAt,value
2018-12-11T00:01:29.113Z,100026.79
2018-12-11T00:04:03.912Z,100018.02
2018-12-11T00:06:37.600Z,100038.08
2018-12-11T00:09:14.212Z,100033.51
2018-12-11T00:11:48.061Z,100027.30
2018-12-11T00:14:18.884Z,100034.63
2018-12-11T00:16:48.606Z,100044.94
2018-12-11T00:19:20.463Z,100042.61
2018-12-11T00:21:57.056Z,100033.90
2018-12-11T00:24:31.053Z,100031.19
2018-12-11T00:27:06.926Z,100032.28
2018-12-11T00:29:38.075Z,100032.43
2018-12-11T00:32:15.449Z,100039.95
2018-12-11T00:34:45.972Z,100039.63
2018-12-11T00:37:16.807Z,100040.20
2018-12-11T00:39:48.106Z,100036.91
2018-12-11T00:42:23.757Z,100036.03
2018-12-11T00:45:05.363Z,100043.63
2018-12-11T00:47:34.967Z,100037.41
2018-12-11T00:50:05.134Z,100036.47
2018-12-11T00:52:36.374Z,100024.63
2018-12-11T00:55:07.313Z,100033.71
2018-12-11T00:57:38.060Z,100035.16
2018-12-11T01:00:09.941Z,100027.55
2018-12-11T01:02:49.768Z,100027.53
2018-12-11T01:05:19.631Z,100033.55
2018-12-11T01:07:47.183Z,100037.88
2018-12-11T01:10:16.987Z,100032.38
2018-12-11T01:12:50.205Z,100023.21
2018-12-11T01:15:20.776Z,100034.25
2018-12-11T01:17:50.854Z,100032.57
2018-12-11T01:20:20.438Z,100038.21
2018-12-11T01:22:55.932Z,100044.64
2018-12-11T01:25:26.127Z,100034.56
2018-12-11T01:27:55.885Z,100038.46
2018-12-11T01:30:25.607Z,100029.06
2018-12-11T01:33:12.746Z,100031.88
2018-12-11T01:35:42.329Z,100032.66
2018-12-11T01:38:11.771Z,100030.30
2018-12-11T01:40:41.257Z,100036.58
2018-12-11T01:43:15.539Z,100036.13
2018-12-11T01:45:46.370Z,100032.98
2018-12-11T01:48:18.853Z,100038.92
2018-12-11T01:50:55.641Z,100035.31
2018-12-11T01:53:35.555Z,100041.60
2018-12-11T01:56:05.467Z,100043.39
2018-12-11T01:58:35.415Z,100045.21
2018-12-11T02:01:04.992Z,100046.15
2018-12-11T02:03:39.187Z,100045.33
2018-12-11T02:06:08.629Z,100045.09
2018-12-11T02:08:38.078Z,100045.14
2018-12-11T02:11:08.027Z,100050.94
2018-12-11T02:13:41.677Z,100044.63
2018-12-11T02:16:12.005Z,100048.59
2018-12-11T02:18:43.147Z,100043.88
2018-12-11T02:21:13.119Z,100049.77
2018-12-11T02:23:44.982Z,100037.61
2018-12-11T02:26:15.085Z,100035.47
2018-12-11T02:28:44.519Z,100033.73
2018-12-11T02:31:14.152Z,100038.44
2018-12-11T02:33:49.836Z,100035.52
2018-12-11T02:36:19.370Z,100030.35
2018-12-11T02:38:48.878Z,100035.16
2018-12-11T02:41:19.978Z,100042.05
2018-12-11T02:43:56.560Z,100042.83
2018-12-11T02:46:27.368Z,100034.98
2018-12-11T02:48:57.073Z,100036.22
2018-12-11T02:51:29.970Z,100043.27
2018-12-11T02:54:02.981Z,100043.41
2018-12-11T02:56:32.430Z,100033.37
2018-12-11T02:59:01.953Z,100037.73
2018-12-11T03:01:31.465Z,100042.30
2018-12-11T03:04:04.481Z,100042.26
2018-12-11T03:06:34.069Z,100039.06
2018-12-11T03:09:06.891Z,100041.02
2018-12-11T03:11:36.813Z,100040.87
2018-12-11T03:14:06.531Z,100040.87
2018-12-11T03:16:36.971Z,100044.66
2018-12-11T03:19:09.807Z,100051.42
2018-12-11T03:21:40.608Z,100041.72
2018-12-11T03:24:10.128Z,100052.27
2018-12-11T03:26:39.878Z,100056.22
2018-12-11T03:29:13.478Z,100058.72
2018-12-11T03:31:43.296Z,100057.20
2018-12-11T03:34:13.070Z,100064.62
2018-12-11T03:36:42.533Z,100061.50
2018-12-11T03:39:12.960Z,100060.54
2018-12-11T03:41:48.633Z,100056.45
2018-12-11T03:44:19.342Z,100061.64
2018-12-11T03:46:48.872Z,100058.48
2018-12-11T03:49:24.825Z,100058.35
2018-12-11T03:51:58.162Z,100063.63
2018-12-11T03:54:28.006Z,100058.98
2018-12-11T03:56:57.748Z,100064.93
2018-12-11T03:59:30.741Z,100058.97
2018-12-11T04:02:06.733Z,100062.99
2018-12-11T04:04:36.283Z,100062.83
2018-12-11T04:07:05.687Z,100063.47
2018-12-11T04:09:35.413Z,100070.73
2018-12-11T04:12:09.001Z,100067.92
2018-12-11T04:14:38.867Z,100074.31
2018-12-11T04:17:08.393Z,100064.61
2018-12-11T04:19:37.957Z,100061.54
2018-12-11T04:22:11.210Z,100066.52
2018-12-11T04:24:41.126Z,100069.09
2018-12-11T04:27:10.768Z,100074.41
2018-12-11T04:29:40.384Z,100074.86
2018-12-11T04:32:18.037Z,100061.39
2018-12-11T04:34:47.698Z,100070.66
2018-12-11T04:37:17.481Z,100063.83
2018-12-11T04:39:47.521Z,100066.64
2018-12-11T04:42:20.763Z,100070.22
2018-12-11T04:44:53.445Z,100074.20
2018-12-11T04:47:23.915Z,100070.00
2018-12-11T04:49:53.518Z,100068.27
2018-12-11T04:52:30.240Z,100073.81
2018-12-11T04:54:59.886Z,100067.07
2018-12-11T04:57:29.648Z,100067.86
2018-12-11T05:00:02.264Z,100068.58
2018-12-11T05:02:35.830Z,100064.17
2018-12-11T05:05:06.668Z,100073.20
2018-12-11T05:07:36.713Z,100080.70
2018-12-11T05:10:08.572Z,100074.07
2018-12-11T05:12:41.732Z,100070.23
2018-12-11T05:15:11.892Z,100075.58
2018-12-11T05:17:42.313Z,100083.72
2018-12-11T05:20:12.293Z,100075.16
2018-12-11T05:22:48.138Z,100075.78
2018-12-11T05:25:17.959Z,100080.58
2018-12-11T05:27:47.729Z,100084.50
2018-12-11T05:30:18.659Z,100081.04
2018-12-11T05:32:53.886Z,100087.16
2018-12-11T05:35:24.295Z,100080.27
2018-12-11T05:37:54.479Z,100085.63
2018-12-11T05:40:24.831Z,100092.92
2018-12-11T05:42:55.982Z,100084.01
2018-12-11T05:45:28.404Z,100086.55
2018-12-11T05:47:58.287Z,100076.11
2018-12-11T05:50:32.409Z,100080.17
2018-12-11T05:53:13.815Z,100075.84
2018-12-11T05:55:43.440Z,100083.72
2018-12-11T05:58:13.019Z,100092.55
2018-12-11T06:00:42.579Z,100086.44
2018-12-11T06:03:16.087Z,100098.27
2018-12-11T06:05:45.728Z,100087.95
2018-12-11T06:08:16.056Z,100090.06
2018-12-11T06:10:47.026Z,100093.89
2018-12-11T06:13:23.061Z,100090.69
2018-12-11T06:15:52.679Z,100090.84
2018-12-11T06:18:23.324Z,100082.77
2018-12-11T06:20:52.878Z,100092.09
2018-12-11T06:23:32.403Z,100086.00
2018-12-11T06:26:02.800Z,100088.97
2018-12-11T06:28:32.331Z,100085.06
2018-12-11T06:31:01.922Z,100081.36
2018-12-11T06:33:38.636Z,100083.55
2018-12-11T06:36:08.599Z,100094.16
2018-12-11T06:38:51.866Z,100098.13
2018-12-11T06:41:38.163Z,100097.52
2018-12-11T06:44:13.203Z,100098.16
2018-12-11T06:46:49.565Z,100100.00
2018-12-11T06:49:19.458Z,100096.69
2018-12-11T06:51:54.486Z,100106.34
2018-12-11T06:54:24.237Z,100104.39
2018-12-11T06:56:53.976Z,100102.38
2018-12-11T06:59:25.323Z,100104.89
2018-12-11T07:02:01.563Z,100108.64
2018-12-11T07:04:31.666Z,100111.77
2018-12-11T07:07:01.179Z,100120.30
2018-12-11T07:09:35.892Z,100116.13
2018-12-11T07:12:07.117Z,100118.09
2018-12-11T07:14:36.608Z,100129.56
2018-12-11T07:17:06.443Z,100122.11
2018-12-11T07:19:42.787Z,100135.67
2018-12-11T07:22:23.173Z,100125.84
2018-12-11T07:24:55.802Z,100130.89
2018-12-11T07:27:26.392Z,100126.84
2018-12-11T07:29:55.935Z,100126.52
2018-12-11T07:32:30.530Z,100129.17
2018-12-11T07:35:00.134Z,100132.39
2018-12-11T07:37:30.122Z,100142.20
2018-12-11T07:40:00.913Z,100142.22
2018-12-11T07:42:35.123Z,100132.52
2018-12-11T07:45:05.414Z,100136.62
2018-12-11T07:47:35.179Z,100132.64
2018-12-11T07:50:05.378Z,100140.63
2018-12-11T07:52:38.284Z,100143.47
2018-12-11T07:55:08.005Z,100151.08
2018-12-11T07:57:46.898Z,100155.92
2018-12-11T08:00:16.635Z,100146.50
2018-12-11T08:02:49.405Z,100157.43
2018-12-11T08:05:19.827Z,100150.05
2018-12-11T08:07:51.981Z,100156.65
2018-12-11T08:10:21.668Z,100157.26
2018-12-11T08:12:57.537Z,100160.02
2018-12-11T08:15:27.017Z,100149.89
2018-12-11T08:17:56.870Z,100148.17
2018-12-11T08:20:26.639Z,100156.65
2018-12-11T08:22:59.568Z,100154.63
2018-12-11T08:25:28.957Z,100158.77
2018-12-11T08:27:58.402Z,100165.83
2018-12-11T08:30:29.480Z,100158.77
2018-12-11T08:33:05.534Z,100173.90
2018-12-11T08:35:36.131Z,100166.08
2018-12-11T08:38:06.523Z,100168.59
2018-12-11T08:40:41.082Z,100185.20
2018-12-11T08:46:49.389Z,100178.20
2018-12-11T08:49:19.464Z,100178.20
2018-12-11T08:51:50.611Z,100188.34
2018-12-11T08:54:20.473Z,100186.33
2018-12-11T08:56:51.352Z,100190.22
2018-12-11T08:59:22.362Z,100191.47
2018-12-11T09:01:58.044Z,100195.16
2018-12-11T09:04:30.311Z,100199.09
2018-12-11T09:07:08.545Z,100200.44
2018-12-11T09:09:38.213Z,100202.84
2018-12-11T09:12:11.644Z,100211.46
2018-12-11T09:14:41.277Z,100211.67
2018-12-11T09:17:11.005Z,100211.30
2018-12-11T09:19:40.770Z,100215.01
2018-12-11T09:22:10.280Z,100214.53
2018-12-11T09:24:40.059Z,100216.50
2018-12-11T09:27:12.149Z,100216.44
2018-12-11T09:29:41.267Z,100206.73
2018-12-11T09:32:10.549Z,100212.38
2018-12-11T09:34:40.876Z,100214.58
2018-12-11T09:37:10.506Z,100217.81
2018-12-11T09:39:40.714Z,100211.79
2018-12-11T09:42:12.115Z,100218.68
2018-12-11T09:44:41.986Z,100222.06
2018-12-11T09:47:28.718Z,100233.26
2018-12-11T09:50:03.419Z,100218.12
2018-12-11T09:52:39.710Z,100222.12
2018-12-11T09:55:10.017Z,100220.41
2018-12-11T09:57:42.784Z,100228.31
2018-12-11T10:00:27.201Z,100228.55
2018-12-11T10:03:02.162Z,100229.17
2018-12-11T10:05:33.843Z,100228.09
2018-12-11T10:12:00.172Z,100236.70
2018-12-11T10:14:32.446Z,100239.98
2018-12-11T10:17:14.475Z,100244.55
2018-12-11T10:19:51.917Z,100238.42
2018-12-11T10:22:24.850Z,100243.13
2018-12-11T10:24:55.547Z,100243.77
2018-12-11T10:27:27.147Z,100242.82
2018-12-11T10:30:00.297Z,100240.60
2018-12-11T10:32:36.558Z,100244.39
2018-12-11T10:35:15.114Z,100248.14
2018-12-11T10:37:48.653Z,100245.40
2018-12-11T10:40:28.429Z,100243.69
2018-12-11T10:43:00.832Z,100245.17
2018-12-11T10:45:35.937Z,100242.81
2018-12-11T10:48:14.586Z,100241.88
2018-12-11T10:50:48.899Z,100249.58
2018-12-11T10:53:43.100Z,100239.75
2018-12-11T10:56:19.191Z,100244.67
2018-12-11T10:59:03.604Z,100254.42
2018-12-11T11:01:41.663Z,100238.75
2018-12-11T11:04:23.572Z,100242.56
2018-12-11T11:07:03.787Z,100254.57
2018-12-11T11:09:43.614Z,100255.81
2018-12-11T11:12:21.655Z,100254.25
2018-12-11T11:14:59.806Z,100264.90
2018-12-11T11:17:51.320Z,100266.39
2018-12-11T11:20:27.536Z,100264.33
2018-12-11T11:23:15.888Z,100267.70
2018-12-11T11:25:47.133Z,100273.31
2018-12-11T11:28:26.991Z,100256.42
2018-12-11T11:31:09.488Z,100277.31
2018-12-11T11:33:44.827Z,100279.15
2018-12-11T11:36:27.074Z,100276.52
2018-12-11T11:39:08.445Z,100269.45
2018-12-11T11:41:45.528Z,100272.02
2018-12-11T11:44:17.468Z,100274.23
2018-12-11T11:46:47.372Z,100277.84
2018-12-11T11:49:19.220Z,100282.61
2018-12-11T11:51:54.275Z,100285.45
2018-12-11T11:54:33.755Z,100285.45
2018-12-11T11:57:05.542Z,100288.58
2018-12-11T11:59:38.464Z,100295.72
2018-12-11T12:02:22.726Z,100294.94
2018-12-11T12:05:03.385Z,100291.49
2018-12-11T12:07:34.202Z,100303.48
2018-12-11T12:10:37.225Z,100304.35
2018-12-11T12:13:17.750Z,100305.89
2018-12-11T12:16:04.063Z,100304.58
2018-12-11T12:18:48.513Z,100300.98
2018-12-11T12:21:51.960Z,100307.25
2018-12-11T12:24:26.422Z,100307.87
2018-12-11T12:27:00.909Z,100309.92
2018-12-11T12:29:32.557Z,100314.30
2018-12-11T12:32:15.117Z,100305.07
2018-12-11T12:34:53.556Z,100301.14
2018-12-11T12:37:29.195Z,100308.12
2018-12-11T12:40:00.968Z,100308.20
2018-12-11T12:42:42.641Z,100312.76
2018-12-11T12:45:14.801Z,100302.55
2018-12-11T12:47:47.498Z,100315.86
2018-12-11T12:50:28.697Z,100313.66
2018-12-11T12:53:08.832Z,100318.05
2018-12-11T12:55:53.469Z,100323.66
2018-12-11T12:58:41.492Z,100319.33
2018-12-11T13:01:23.254Z,100330.85
2018-12-11T13:04:06.226Z,100327.94
2018-12-11T13:06:37.682Z,100327.86
2018-12-11T13:09:10.651Z,100333.42
2018-12-11T13:11:59.204Z,100338.86
2018-12-11T13:14:59.797Z,100327.30
2018-12-11T13:17:37.356Z,100341.13
2018-12-11T13:20:15.848Z,100339.33
2018-12-11T13:25:55.131Z,100342.16
2018-12-11T13:28:38.487Z,100336.84
2018-12-11T13:31:23.064Z,100345.23
2018-12-11T13:37:11.367Z,100342.69
2018-12-11T13:39:45.772Z,100349.21
2018-12-11T13:42:33.246Z,100350.62
2018-12-11T13:45:07.324Z,100351.49
2018-12-11T13:47:42.372Z,100351.34
2018-12-11T13:50:36.735Z,100358.26
2018-12-11T13:53:14.345Z,100356.75
2018-12-11T13:55:45.612Z,100365.16
2018-12-11T13:58:16.423Z,100370.02
2018-12-11T14:00:53.527Z,100366.63
2018-12-11T14:03:30.486Z,100362.31
2018-12-11T14:06:01.504Z,100360.30
2018-12-11T14:08:31.703Z,100371.98
2018-12-11T14:11:01.370Z,100376.52
2018-12-11T14:13:36.929Z,100381.13
2018-12-11T14:16:07.342Z,100381.13
2018-12-11T14:18:37.684Z,100375.26
2018-12-11T14:24:16.582Z,100380.20
2018-12-11T14:26:52.724Z,100386.40
2018-12-11T14:29:55.137Z,100386.48
2018-12-11T14:32:43.882Z,100387.43
2018-12-11T14:35:28.936Z,100391.09
2018-12-11T14:38:32.292Z,100387.11
2018-12-11T14:41:42.891Z,100393.17
2018-12-11T15:01:16.249Z,100390.71
2018-12-11T15:04:01.557Z,100391.27
2018-12-11T15:10:35.231Z,100389.28
2018-12-11T15:19:41.254Z,100387.67
2018-12-11T15:22:16.086Z,100389.30
2018-12-11T15:24:47.536Z,100394.96
2018-12-11T15:27:37.998Z,100405.88
2018-12-11T15:30:17.538Z,100389.91
2018-12-11T15:32:48.857Z,100397.45
2018-12-11T15:35:26.719Z,100406.40
2018-12-11T15:37:59.519Z,100400.91
2018-12-11T15:40:32.809Z,100400.41
2018-12-11T15:43:11.920Z,100404.97
2018-12-11T15:45:42.732Z,100405.12
2018-12-11T15:48:15.148Z,100401.89
2018-12-11T15:50:45.964Z,100400.89
2018-12-11T15:53:18.672Z,100403.00
2018-12-11T15:55:50.812Z,100401.44
2018-12-11T15:58:25.105Z,100405.19
2018-12-11T16:00:55.264Z,100410.45
2018-12-11T16:03:31.296Z,100414.53
2018-12-11T16:06:01.009Z,100410.05
2018-12-11T16:08:30.512Z,100433.40
2018-12-11T16:11:00.235Z,100422.02
2018-12-11T16:13:31.453Z,100424.73
2018-12-11T16:16:01.258Z,100425.52
2018-12-11T16:18:30.894Z,100429.11
2018-12-11T16:21:01.436Z,100429.42
2018-12-11T16:23:35.347Z,100434.37
2018-12-11T16:26:08.097Z,100439.52
2018-12-11T16:28:54.230Z,100441.48
2018-12-11T16:31:30.216Z,100440.55
2018-12-11T16:34:00.089Z,100442.05
2018-12-11T16:36:30.314Z,100441.58
2018-12-11T16:39:04.170Z,100453.01
2018-12-11T16:41:35.362Z,100448.01
2018-12-11T16:44:09.907Z,100447.63
2018-12-11T16:46:40.124Z,100456.23
2018-12-11T16:49:10.888Z,100458.88
2018-12-11T16:51:45.361Z,100454.75
2018-12-11T16:54:20.674Z,100456.02
2018-12-11T16:56:51.576Z,100459.60
2018-12-11T16:59:28.476Z,100470.89
2018-12-11T17:02:06.690Z,100461.30
2018-12-11T17:04:36.560Z,100469.66
2018-12-11T17:07:17.534Z,100472.64
2018-12-11T17:09:47.871Z,100478.51
2018-12-11T17:12:36.053Z,100479.69
2018-12-11T17:15:16.384Z,100474.46
2018-12-11T17:17:49.950Z,100481.41
2018-12-11T17:20:26.200Z,100482.09
2018-12-11T17:23:00.623Z,100484.63
2018-12-11T17:25:30.429Z,100484.37
2018-12-11T17:28:00.760Z,100493.23
2018-12-11T17:30:32.799Z,100490.03
2018-12-11T17:33:05.619Z,100485.28
2018-12-11T17:35:39.500Z,100488.56
2018-12-11T17:38:13.034Z,100497.43
2018-12-11T17:40:48.095Z,100496.42
2018-12-11T17:43:22.210Z,100493.75
2018-12-11T17:45:53.557Z,100496.58
2018-12-11T17:48:24.807Z,100500.80
2018-12-11T17:50:54.771Z,100490.29
2018-12-11T17:53:28.103Z,100502.67
2018-12-11T17:56:00.625Z,100501.43
2018-12-11T17:58:30.232Z,100497.57
2018-12-11T18:01:00.215Z,100501.25
2018-12-11T18:03:35.057Z,100497.87
2018-12-11T18:06:04.730Z,100502.64
2018-12-11T18:08:34.685Z,100503.89
2018-12-11T18:11:04.344Z,100509.62
2018-12-11T18:13:37.624Z,100505.22
2018-12-11T18:16:07.356Z,100511.56
2018-12-11T18:18:37.226Z,100519.02
2018-12-11T18:21:14.139Z,100513.05
2018-12-11T18:23:49.449Z,100507.03
2018-12-11T18:26:21.439Z,100517.73
2018-12-11T18:28:51.457Z,100518.14
2018-12-11T18:31:27.115Z,100529.23
2018-12-11T18:34:01.846Z,100532.41
2018-12-11T18:36:31.602Z,100540.78
2018-12-11T18:39:02.455Z,100543.27
2018-12-11T18:41:33.290Z,100536.38
2018-12-11T18:44:06.376Z,100546.20
2018-12-11T18:46:36.276Z,100554.93
2018-12-11T18:49:05.893Z,100546.07
2018-12-11T18:51:36.688Z,100548.86
2018-12-11T18:54:06.403Z,100557.56
2018-12-11T18:56:37.063Z,100551.86
2018-12-11T18:59:07.513Z,100552.71
2018-12-11T19:01:37.529Z,100556.02
2018-12-11T19:04:07.650Z,100554.92
2018-12-11T19:06:37.360Z,100556.17
2018-12-11T19:09:08.035Z,100554.52
2018-12-11T19:11:37.781Z,100556.47
2018-12-11T19:14:27.577Z,100567.14
2018-12-11T19:17:03.165Z,100567.73
2018-12-11T19:19:33.142Z,100563.84
2018-12-11T19:22:03.545Z,100561.12
2018-12-11T19:24:54.269Z,100563.32
2018-12-11T19:27:23.701Z,100563.70
2018-12-11T19:29:53.487Z,100563.34
2018-12-11T19:32:23.171Z,100568.03
2018-12-11T19:35:00.884Z,100560.98
2018-12-11T19:37:30.538Z,100559.49
2018-12-11T19:40:07.249Z,100569.12
2018-12-11T19:42:43.274Z,100568.64
2018-12-11T19:45:12.955Z,100574.31
2018-12-11T19:47:42.455Z,100572.05
2018-12-11T19:50:38.788Z,100566.63
2018-12-11T19:53:11.330Z,100568.83
2018-12-11T19:55:40.875Z,100574.03
2018-12-11T19:58:17.548Z,100567.93
2018-12-11T20:00:52.808Z,100574.17
2018-12-11T20:03:30.519Z,100567.55
2018-12-11T20:06:00.071Z,100571.64
2018-12-11T20:08:40.073Z,100577.65
2018-12-11T20:11:10.906Z,100577.33
2018-12-11T20:13:50.554Z,100577.38
2018-12-11T20:16:41.918Z,100583.19
2018-12-11T20:19:13.649Z,100577.57
2018-12-11T20:21:53.078Z,100577.91
2018-12-11T20:24:52.688Z,100581.05
2018-12-11T20:28:13.232Z,100580.29
2018-12-11T20:31:04.301Z,100588.34
2018-12-11T20:33:37.184Z,100592.34
2018-12-11T20:36:18.681Z,100592.79
2018-12-11T20:38:48.856Z,100595.73
2018-12-11T20:41:22.096Z,100599.28
2018-12-11T20:44:06.072Z,100602.20
2018-12-11T20:46:37.389Z,100596.33
2018-12-11T20:49:08.929Z,100601.12
2018-12-11T20:51:39.136Z,100602.19
2018-12-11T20:54:13.808Z,100605.12
2018-12-11T20:56:44.022Z,100602.57
2018-12-11T20:59:19.450Z,100608.89
2018-12-11T21:01:55.787Z,100606.09
2018-12-11T21:04:25.636Z,100607.72
2018-12-11T21:06:57.212Z,100607.50
2018-12-11T21:12:56.268Z,100604.21
2018-12-11T21:15:27.060Z,100605.23
2018-12-11T21:17:56.808Z,100605.95
2018-12-11T21:20:27.000Z,100610.36
2018-12-11T21:23:10.622Z,100613.70
2018-12-11T21:26:00.477Z,100616.73
2018-12-11T21:28:31.739Z,100619.48
2018-12-11T21:31:35.422Z,100617.84
2018-12-11T21:34:15.592Z,100617.92
2018-12-11T21:36:48.798Z,100620.07
2018-12-11T21:39:22.328Z,100617.88
2018-12-11T21:42:05.308Z,100625.18
2018-12-11T21:44:54.510Z,100616.50
2018-12-11T21:47:26.219Z,100623.02
2018-12-11T21:50:01.435Z,100627.89
2018-12-11T21:52:38.429Z,100622.50
2018-12-11T21:55:09.041Z,100625.91
2018-12-11T21:57:39.852Z,100623.41
2018-12-11T22:00:19.768Z,100624.46
2018-12-11T22:02:53.038Z,100622.53
2018-12-11T22:05:26.212Z,100623.41
2018-12-11T22:07:57.283Z,100636.38
2018-12-11T22:10:28.258Z,100633.42
2018-12-11T22:13:02.651Z,100631.45
2018-12-11T22:15:32.282Z,100629.27
2018-12-11T22:18:02.060Z,100636.77
2018-12-11T22:20:35.971Z,100634.41
2018-12-11T22:23:07.535Z,100643.57
2018-12-11T22:25:37.304Z,100642.49
2018-12-11T22:28:07.009Z,100646.93
2018-12-11T22:30:40.142Z,100642.29
2018-12-11T22:33:16.260Z,100650.56
2018-12-11T22:35:45.835Z,100644.61
2018-12-11T22:38:17.988Z,100645.20
2018-12-11T22:40:48.143Z,100649.96
2018-12-11T22:43:27.222Z,100658.13
2018-12-11T22:45:58.766Z,100654.91
2018-12-11T22:48:31.925Z,100655.71
2018-12-11T22:51:03.472Z,100660.98
2018-12-11T22:53:40.223Z,100662.78
2018-12-11T22:56:10.977Z,100664.69
2018-12-11T22:58:40.833Z,100668.52
2018-12-11T23:01:11.333Z,100665.06
2018-12-11T23:03:48.881Z,100665.58
2018-12-11T23:06:19.716Z,100673.17
2018-12-11T23:08:59.178Z,100679.12
2018-12-11T23:11:29.206Z,100669.77
2018-12-11T23:14:03.806Z,100672.92
2018-12-11T23:16:33.471Z,100674.77
2018-12-11T23:19:02.934Z,100675.14
2018-12-11T23:21:33.530Z,100685.14
2018-12-11T23:24:07.572Z,100678.92
2018-12-11T23:26:38.922Z,100686.28
2018-12-11T23:29:09.454Z,100693.86
2018-12-11T23:31:41.383Z,100690.89
2018-12-11T23:34:11.902Z,100694.73
2018-12-11T23:36:42.535Z,100697.06
2018-12-11T23:39:12.507Z,100701.41
2018-12-11T23:41:48.750Z,100708.23
2018-12-11T23:44:18.980Z,100709.98
2018-12-11T23:46:48.765Z,100709.81
2018-12-11T23:49:19.785Z,100707.49
2018-12-11T23:51:55.986Z,100715.73
2018-12-11T23:54:25.669Z,100714.81
2018-12-11T23:56:56.347Z,100717.97
2018-12-11T23:59:29.156Z,100720.50
